createdAt,value
2024-02-14T00:00:02.901Z,67.47
2024-02-14T00:02:37.507Z,67.50
2024-02-14T00:05:12.103Z,67.33
2024-02-14T00:07:44.863Z,67.39
2024-02-14T00:10:18.068Z,67.29
2024-02-14T00:12:50.876Z,67.36
2024-02-14T00:15:23.401Z,67.08
2024-02-14T00:17:58.816Z,67.16
2024-02-14T00:20:31.367Z,67.05
2024-02-14T00:23:03.897Z,67.03
2024-02-14T00:25:36.254Z,67.06
2024-02-14T00:28:09.825Z,67.09
2024-02-14T00:30:42.193Z,67.20
2024-02-14T00:33:14.839Z,67.09
2024-02-14T00:35:47.359Z,66.96
2024-02-14T00:38:20.424Z,67.21
2024-02-14T00:40:52.698Z,67.24
2024-02-14T00:43:25.018Z,67.12
2024-02-14T00:45:58.339Z,67.38
2024-02-14T00:48:30.734Z,67.11
2024-02-14T00:51:03.552Z,67.34
2024-02-14T00:53:36.387Z,67.21
2024-02-14T00:56:13.765Z,67.46
2024-02-14T00:58:46.477Z,67.19
2024-02-14T01:01:18.935Z,67.28
2024-02-14T01:03:51.902Z,67.40
2024-02-14T01:06:26.115Z,67.61
2024-02-14T01:08:58.969Z,67.44
2024-02-14T01:11:31.577Z,67.53
2024-02-14T01:14:04.202Z,67.59
2024-02-14T01:16:44.115Z,67.57
2024-02-14T01:19:16.641Z,67.36
2024-02-14T01:21:49.956Z,67.32
2024-02-14T01:24:23.539Z,67.24
2024-02-14T01:26:57.361Z,67.44
2024-02-14T01:29:29.800Z,67.21
2024-02-14T01:32:02.435Z,67.16
2024-02-14T01:34:35.069Z,67.17
2024-02-14T01:37:07.472Z,67.17
2024-02-14T01:39:39.812Z,67.24
2024-02-14T01:42:12.248Z,67.17
2024-02-14T01:44:45.039Z,67.34
2024-02-14T01:47:20.306Z,67.28
2024-02-14T01:49:52.759Z,67.42
2024-02-14T01:52:25.168Z,67.47
2024-02-14T01:54:58.255Z,67.56
2024-02-14T01:57:31.109Z,67.62
2024-02-14T02:00:09.906Z,67.75
2024-02-14T02:02:42.490Z,67.86
2024-02-14T02:05:14.959Z,67.96
2024-02-14T02:07:50.052Z,68.06
2024-02-14T02:10:26.851Z,68.09
2024-02-14T02:13:03.352Z,67.88
2024-02-14T02:15:35.801Z,67.94
2024-02-14T02:18:09.107Z,68.07
2024-02-14T02:20:44.209Z,67.82
2024-02-14T02:23:16.993Z,67.85
2024-02-14T02:25:49.536Z,67.87
2024-02-14T02:28:21.879Z,67.47
2024-02-14T02:30:57.435Z,67.66
2024-02-14T02:33:31.902Z,67.67
2024-02-14T02:36:04.700Z,67.70
2024-02-14T02:38:38.007Z,67.45
2024-02-14T02:41:10.514Z,67.21
2024-02-14T02:43:42.703Z,67.46
2024-02-14T02:46:15.696Z,67.57
2024-02-14T02:48:49.272Z,67.46
2024-02-14T02:51:21.821Z,67.86
2024-02-14T02:53:55.700Z,67.69
2024-02-14T02:56:29.173Z,68.14
2024-02-14T02:59:04.585Z,67.98
2024-02-14T03:01:41.551Z,68.34
2024-02-14T03:04:16.255Z,68.38
2024-02-14T03:06:48.768Z,68.25
2024-02-14T03:09:21.065Z,68.34
2024-02-14T03:11:53.790Z,68.18
2024-02-14T03:14:26.768Z,68.44
2024-02-14T03:17:01.358Z,68.14
2024-02-14T03:19:39.610Z,68.34
2024-02-14T03:22:12.528Z,68.13
2024-02-14T03:24:45.278Z,68.41
2024-02-14T03:27:18.725Z,68.46
2024-02-14T03:29:53.144Z,68.19
2024-02-14T03:32:25.545Z,68.06
2024-02-14T03:34:57.980Z,68.34
2024-02-14T03:37:30.593Z,68.11
2024-02-14T03:40:09.469Z,68.27
2024-02-14T03:42:41.839Z,68.32
2024-02-14T03:45:15.603Z,68.41
2024-02-14T03:47:47.955Z,68.66
2024-02-14T03:50:20.617Z,68.55
2024-02-14T03:52:52.915Z,68.71
2024-02-14T03:55:26.185Z,68.78
2024-02-14T03:57:58.730Z,68.79
2024-02-14T04:00:32.611Z,68.60
2024-02-14T04:03:08.562Z,68.74
2024-02-14T04:05:42.147Z,68.58
2024-02-14T04:08:14.592Z,68.94
2024-02-14T04:10:47.494Z,68.71
2024-02-14T04:13:20.375Z,68.50
2024-02-14T04:15:53.955Z,68.72
2024-02-14T04:18:27.036Z,68.46
2024-02-14T04:21:00.918Z,68.52
2024-02-14T04:23:34.589Z,68.57
2024-02-14T04:26:07.058Z,68.49
2024-02-14T04:28:41.855Z,68.78
2024-02-14T04:31:14.028Z,68.85
2024-02-14T04:33:51.014Z,68.80
2024-02-14T04:36:24.793Z,69.01
2024-02-14T04:38:58.234Z,69.05
2024-02-14T04:41:30.931Z,69.51
2024-02-14T04:44:03.390Z,69.08
2024-02-14T04:46:36.151Z,69.13
2024-02-14T04:49:08.731Z,69.17
2024-02-14T04:51:41.446Z,69.14
2024-02-14T04:54:15.036Z,69.16
2024-02-14T04:56:50.419Z,69.04
2024-02-14T04:59:24.769Z,68.99
2024-02-14T05:01:57.984Z,68.99
2024-02-14T05:04:31.134Z,68.74
2024-02-14T05:07:03.509Z,69.04
2024-02-14T05:09:36.017Z,68.73
2024-02-14T05:12:12.286Z,69.02
2024-02-14T05:14:44.977Z,69.05
2024-02-14T05:17:18.198Z,68.93
2024-02-14T05:19:50.870Z,69.01
2024-02-14T05:22:24.071Z,68.82
2024-02-14T05:24:56.375Z,68.92
2024-02-14T05:27:31.421Z,68.78
2024-02-14T05:30:06.918Z,68.98
2024-02-14T05:32:41.280Z,69.08
2024-02-14T05:35:14.215Z,69.28
2024-02-14T05:37:52.329Z,69.24
2024-02-14T05:40:25.769Z,69.25
2024-02-14T05:42:58.481Z,69.43
2024-02-14T05:45:30.834Z,69.15
2024-02-14T05:48:03.162Z,69.35
2024-02-14T05:50:36.588Z,69.53
2024-02-14T05:53:09.110Z,69.29
2024-02-14T05:55:41.424Z,68.92
2024-02-14T05:58:14.065Z,69.06
2024-02-14T06:00:46.628Z,69.24
2024-02-14T06:03:19.918Z,68.81
2024-02-14T06:05:52.384Z,69.20
2024-02-14T06:08:25.457Z,69.03
2024-02-14T06:10:57.947Z,68.99
2024-02-14T06:13:32.658Z,69.07
2024-02-14T06:16:06.715Z,68.95
2024-02-14T06:18:40.983Z,69.04
2024-02-14T06:21:13.605Z,69.44
2024-02-14T06:23:48.307Z,69.63
2024-02-14T06:26:20.764Z,69.02
2024-02-14T06:28:55.875Z,69.26
2024-02-14T06:31:28.986Z,69.52
2024-02-14T06:34:01.979Z,69.59
2024-02-14T06:36:34.913Z,69.40
2024-02-14T06:39:09.398Z,69.59
2024-02-14T06:41:42.786Z,69.36
2024-02-14T06:44:16.331Z,69.29
2024-02-14T06:46:48.627Z,69.29
2024-02-14T06:49:21.458Z,69.27
2024-02-14T06:51:54.008Z,69.39
2024-02-14T06:54:26.272Z,69.04
2024-02-14T06:56:58.546Z,69.05
2024-02-14T06:59:31.227Z,69.20
2024-02-14T07:02:13.027Z,69.31
2024-02-14T07:04:46.541Z,69.26
2024-02-14T07:07:19.233Z,69.10
2024-02-14T07:09:54.901Z,69.42
2024-02-14T07:12:28.222Z,69.50
2024-02-14T07:15:00.683Z,69.39
2024-02-14T07:17:33.387Z,69.17
2024-02-14T07:20:07.231Z,69.31
2024-02-14T07:22:39.840Z,69.27
2024-02-14T07:25:12.905Z,68.92
2024-02-14T07:27:47.263Z,69.22
2024-02-14T07:30:20.234Z,69.24
2024-02-14T07:32:53.107Z,68.94
2024-02-14T07:35:27.121Z,68.94
2024-02-14T07:37:59.548Z,69.03
2024-02-14T07:40:33.336Z,68.89
2024-02-14T07:43:07.571Z,68.81
2024-02-14T07:45:39.854Z,69.06
2024-02-14T07:48:12.905Z,68.97
2024-02-14T07:50:45.872Z,69.15
2024-02-14T07:53:19.888Z,69.42
2024-02-14T07:55:53.346Z,69.37
2024-02-14T07:58:25.850Z,69.38
2024-02-14T08:00:58.273Z,69.61
2024-02-14T08:03:30.522Z,69.94
2024-02-14T08:06:03.210Z,69.66
2024-02-14T08:08:36.423Z,70.29
2024-02-14T08:11:09.166Z,70.31
2024-02-14T08:13:42.476Z,70.42
2024-02-14T08:16:14.795Z,70.55
2024-02-14T08:18:47.224Z,70.48
2024-02-14T08:21:20.443Z,70.42
2024-02-14T08:23:52.864Z,70.50
2024-02-14T08:26:25.630Z,70.87
2024-02-14T08:28:59.446Z,70.82
2024-02-14T08:31:34.005Z,70.92
2024-02-14T08:34:06.424Z,71.22
2024-02-14T08:36:42.116Z,71.01
2024-02-14T08:39:15.108Z,71.42
2024-02-14T08:41:48.453Z,71.21
2024-02-14T08:44:21.244Z,71.40
2024-02-14T08:46:55.526Z,71.41
2024-02-14T08:49:27.801Z,71.43
2024-02-14T08:52:00.100Z,71.46
2024-02-14T08:54:34.159Z,71.38
2024-02-14T08:57:07.033Z,71.31
2024-02-14T08:59:39.772Z,71.76
2024-02-14T09:02:12.105Z,71.80
2024-02-14T09:04:45.651Z,72.00
2024-02-14T09:07:18.567Z,71.71
2024-02-14T09:09:51.193Z,72.01
2024-02-14T09:12:23.986Z,72.00
2024-02-14T09:14:58.295Z,72.54
2024-02-14T09:17:31.795Z,72.19
2024-02-14T09:20:07.761Z,72.23
2024-02-14T09:22:42.487Z,72.33
2024-02-14T09:25:15.588Z,72.55
2024-02-14T09:27:49.013Z,72.52
2024-02-14T09:30:28.116Z,72.82
2024-02-14T09:33:08.173Z,72.96
2024-02-14T09:35:45.919Z,72.84
2024-02-14T09:38:18.702Z,73.02
2024-02-14T09:40:51.806Z,72.93
2024-02-14T09:43:30.806Z,72.95
2024-02-14T09:46:04.412Z,73.17
2024-02-14T09:48:41.129Z,73.05
2024-02-14T09:51:15.494Z,73.08
2024-02-14T09:53:49.337Z,73.26
2024-02-14T09:56:24.785Z,73.16
2024-02-14T09:58:58.306Z,73.18
2024-02-14T10:01:30.991Z,73.37
2024-02-14T10:04:04.473Z,73.27
2024-02-14T10:06:39.178Z,73.40
2024-02-14T10:09:12.238Z,73.56
2024-02-14T10:11:46.274Z,73.37
2024-02-14T10:14:20.439Z,73.50
2024-02-14T10:16:52.797Z,73.32
2024-02-14T10:19:25.870Z,73.44
2024-02-14T10:22:04.143Z,73.60
2024-02-14T10:24:36.651Z,73.93
2024-02-14T10:27:13.769Z,73.88
2024-02-14T10:29:46.121Z,73.80
2024-02-14T10:32:20.151Z,73.79
2024-02-14T10:34:52.609Z,73.86
2024-02-14T10:37:27.421Z,73.99
2024-02-14T10:40:03.097Z,73.92
2024-02-14T10:42:36.111Z,74.04
2024-02-14T10:45:10.538Z,74.11
2024-02-14T10:47:46.377Z,74.09
2024-02-14T10:50:20.627Z,73.98
2024-02-14T10:52:55.699Z,74.28
2024-02-14T10:55:35.579Z,74.17
2024-02-14T10:58:09.333Z,74.28
2024-02-14T11:00:43.640Z,73.93
2024-02-14T11:03:17.108Z,74.07
2024-02-14T11:05:51.311Z,73.97
2024-02-14T11:08:26.188Z,73.93
2024-02-14T11:11:00.949Z,73.81
2024-02-14T11:13:34.877Z,73.85
2024-02-14T11:16:12.315Z,73.87
2024-02-14T11:18:44.884Z,73.95
2024-02-14T11:21:21.608Z,74.10
2024-02-14T11:24:09.796Z,74.20
2024-02-14T11:26:48.445Z,74.11
2024-02-14T11:29:23.848Z,73.99
2024-02-14T11:32:04.354Z,74.12
2024-02-14T11:34:38.571Z,74.19
2024-02-14T11:37:16.394Z,74.17
2024-02-14T11:39:50.894Z,74.24
2024-02-14T11:42:27.083Z,74.12
2024-02-14T11:45:00.209Z,74.31
2024-02-14T11:47:33.288Z,74.25
2024-02-14T11:50:07.476Z,74.33
2024-02-14T11:52:39.786Z,74.03
2024-02-14T11:55:14.725Z,73.90
2024-02-14T11:57:49.396Z,73.63
2024-02-14T12:00:22.868Z,73.64
2024-02-14T12:02:56.281Z,73.64
2024-02-14T12:05:28.975Z,73.38
2024-02-14T12:08:02.149Z,73.65
2024-02-14T12:10:37.642Z,73.77
2024-02-14T12:13:13.212Z,73.78
2024-02-14T12:15:47.922Z,73.75
2024-02-14T12:18:21.923Z,73.63
2024-02-14T12:21:07.140Z,73.73
2024-02-14T12:23:40.248Z,73.47
2024-02-14T12:26:18.618Z,73.48
2024-02-14T12:28:54.672Z,73.55
2024-02-14T12:31:27.735Z,73.54
2024-02-14T12:34:03.864Z,73.66
2024-02-14T12:36:37.183Z,73.68
2024-02-14T12:39:14.056Z,73.64
2024-02-14T12:41:46.721Z,73.52
2024-02-14T12:44:19.882Z,73.49
2024-02-14T12:46:52.516Z,73.52
2024-02-14T12:49:27.426Z,73.40
2024-02-14T12:51:59.894Z,73.49
2024-02-14T12:54:33.757Z,73.36
2024-02-14T12:57:06.958Z,73.20
2024-02-14T12:59:39.272Z,73.18
2024-02-14T13:02:12.287Z,73.15
2024-02-14T13:04:45.325Z,73.15
2024-02-14T13:07:18.648Z,73.17
2024-02-14T13:09:52.482Z,73.42
2024-02-14T13:12:25.501Z,73.27
2024-02-14T13:14:57.926Z,73.43
2024-02-14T13:17:30.883Z,73.37
2024-02-14T13:20:05.034Z,73.44
2024-02-14T13:22:38.035Z,73.36
2024-02-14T13:25:12.144Z,73.57
2024-02-14T13:27:45.990Z,73.53
2024-02-14T13:30:20.235Z,73.56
2024-02-14T13:32:53.251Z,73.68
2024-02-14T13:35:25.985Z,73.75
2024-02-14T13:37:59.347Z,73.92
2024-02-14T13:40:31.773Z,73.98
2024-02-14T13:43:04.475Z,74.09
2024-02-14T13:45:45.235Z,74.18
2024-02-14T13:48:18.882Z,74.28
2024-02-14T13:50:52.747Z,74.37
2024-02-14T13:53:25.259Z,74.53
2024-02-14T13:55:57.956Z,74.76
2024-02-14T13:58:30.540Z,74.71
2024-02-14T14:01:03.077Z,74.96
2024-02-14T14:03:37.936Z,75.02
2024-02-14T14:06:11.341Z,74.99
2024-02-14T14:08:44.274Z,75.11
2024-02-14T14:11:16.795Z,75.15
2024-02-14T14:13:49.080Z,75.21
2024-02-14T14:16:23.078Z,75.24
2024-02-14T14:18:55.629Z,75.38
2024-02-14T14:21:28.100Z,75.56
2024-02-14T14:24:00.442Z,75.60
2024-02-14T14:26:33.108Z,75.51
2024-02-14T14:29:06.000Z,75.63
2024-02-14T14:31:38.400Z,75.49
2024-02-14T14:34:11.094Z,75.71
2024-02-14T14:36:43.454Z,75.66
2024-02-14T14:39:15.804Z,75.67
2024-02-14T14:41:48.160Z,75.82
2024-02-14T14:44:20.784Z,75.79
2024-02-14T14:46:53.123Z,75.86
2024-02-14T14:49:25.639Z,75.93
2024-02-14T14:51:58.803Z,75.83
2024-02-14T14:54:31.859Z,75.91
2024-02-14T14:57:10.961Z,75.93
2024-02-14T14:59:44.666Z,76.00
2024-02-14T15:02:17.193Z,76.03
2024-02-14T15:04:51.199Z,75.99
2024-02-14T15:07:23.720Z,76.04
2024-02-14T15:09:56.065Z,76.18
2024-02-14T15:12:28.323Z,76.31
2024-02-14T15:15:00.923Z,76.18
2024-02-14T15:17:33.319Z,76.29
2024-02-14T15:20:06.289Z,76.35
2024-02-14T15:22:38.758Z,76.42
2024-02-14T15:25:12.136Z,76.32
2024-02-14T15:27:55.713Z,76.50
2024-02-14T15:30:46.511Z,76.52
2024-02-14T15:33:25.621Z,76.40
2024-02-14T15:35:59.251Z,76.54
2024-02-14T15:38:31.922Z,76.62
2024-02-14T15:41:05.770Z,76.63
2024-02-14T15:43:38.315Z,76.51
2024-02-14T15:46:10.652Z,76.54
2024-02-14T15:48:43.568Z,76.73
2024-02-14T15:51:19.051Z,76.79
2024-02-14T15:53:51.581Z,76.72
2024-02-14T15:56:24.893Z,76.81
2024-02-14T15:58:58.766Z,76.97
2024-02-14T16:01:30.990Z,76.96
2024-02-14T16:04:03.294Z,76.91
2024-02-14T16:06:36.457Z,76.92
2024-02-14T16:09:10.348Z,76.95
2024-02-14T16:11:43.804Z,77.04
2024-02-14T16:14:18.208Z,77.04
2024-02-14T16:16:51.039Z,77.22
2024-02-14T16:19:23.304Z,77.17
2024-02-14T16:22:02.383Z,77.39
2024-02-14T16:24:42.329Z,77.34
2024-02-14T16:27:15.117Z,77.37
2024-02-14T16:29:47.884Z,77.38
2024-02-14T16:32:20.918Z,77.32
2024-02-14T16:34:53.219Z,77.48
2024-02-14T16:37:25.504Z,77.61
2024-02-14T16:39:58.433Z,77.65
2024-02-14T16:42:30.927Z,77.80
2024-02-14T16:45:05.531Z,77.72
2024-02-14T16:47:38.653Z,77.69
2024-02-14T16:50:11.880Z,77.86
2024-02-14T16:52:44.263Z,77.88
2024-02-14T16:55:16.533Z,77.91
2024-02-14T16:57:48.846Z,77.84
2024-02-14T17:00:22.742Z,77.73
2024-02-14T17:02:55.249Z,78.05
2024-02-14T17:05:28.019Z,78.04
2024-02-14T17:08:00.654Z,78.14
2024-02-14T17:10:33.183Z,78.17
2024-02-14T17:13:05.673Z,78.20
2024-02-14T17:15:38.202Z,78.37
2024-02-14T17:18:10.994Z,78.35
2024-02-14T17:20:44.293Z,78.32
2024-02-14T17:23:17.015Z,78.43
2024-02-14T17:25:50.504Z,78.55
2024-02-14T17:28:22.917Z,78.55
2024-02-14T17:30:55.198Z,78.57
2024-02-14T17:33:27.791Z,78.58
2024-02-14T17:36:00.198Z,78.60
2024-02-14T17:38:33.072Z,78.69
2024-02-14T17:41:05.714Z,78.56
2024-02-14T17:43:38.307Z,78.55
2024-02-14T17:46:11.783Z,78.91
2024-02-14T17:48:44.315Z,78.91
2024-02-14T17:51:17.357Z,78.78
2024-02-14T17:53:50.814Z,78.89
2024-02-14T17:56:26.276Z,78.91
2024-02-14T17:58:58.780Z,78.92
2024-02-14T18:01:31.094Z,79.05
2024-02-14T18:04:06.030Z,79.18
2024-02-14T18:06:40.162Z,79.19
2024-02-14T18:09:13.026Z,79.09
2024-02-14T18:11:45.922Z,79.34
2024-02-14T18:14:18.678Z,79.27
2024-02-14T18:16:52.438Z,79.34
2024-02-14T18:19:24.889Z,79.44
2024-02-14T18:21:57.785Z,79.37
2024-02-14T18:24:30.053Z,79.28
2024-02-14T18:27:02.598Z,79.47
2024-02-14T18:29:35.279Z,79.42
2024-02-14T18:32:09.605Z,79.63
2024-02-14T18:34:42.258Z,79.58
2024-02-14T18:37:14.787Z,79.61
2024-02-14T18:39:47.140Z,79.81
2024-02-14T18:42:19.476Z,80.02
2024-02-14T18:44:51.888Z,79.93
2024-02-14T18:47:24.880Z,79.85
2024-02-14T18:49:57.265Z,79.57
2024-02-14T18:52:29.563Z,79.78
2024-02-14T18:55:02.034Z,79.50
2024-02-14T18:57:34.570Z,79.68
2024-02-14T19:00:11.452Z,79.65
2024-02-14T19:02:44.357Z,79.69
2024-02-14T19:05:16.921Z,79.73
2024-02-14T19:07:49.280Z,79.66
2024-02-14T19:10:22.114Z,79.74
2024-02-14T19:12:54.533Z,79.51
2024-02-14T19:15:26.892Z,79.82
2024-02-14T19:17:59.266Z,79.83
2024-02-14T19:20:32.126Z,79.76
2024-02-14T19:23:08.339Z,79.74
2024-02-14T19:25:40.747Z,79.68
2024-02-14T19:28:13.468Z,79.83
2024-02-14T19:30:45.982Z,79.71
2024-02-14T19:33:19.237Z,79.86
2024-02-14T19:35:54.840Z,79.96
2024-02-14T19:38:29.370Z,80.06
2024-02-14T19:41:03.951Z,80.22
2024-02-14T19:43:39.909Z,80.17
2024-02-14T19:46:13.441Z,80.18
2024-02-14T19:48:46.217Z,80.21
2024-02-14T19:51:20.351Z,80.13
2024-02-14T19:53:52.926Z,80.17
2024-02-14T19:56:25.716Z,80.14
2024-02-14T19:58:58.001Z,80.19
2024-02-14T20:01:30.188Z,80.37
2024-02-14T20:04:02.937Z,80.22
2024-02-14T20:06:35.506Z,80.09
2024-02-14T20:09:08.716Z,80.21
2024-02-14T20:11:41.206Z,79.97
2024-02-14T20:14:13.675Z,79.96
2024-02-14T20:16:47.881Z,80.08
2024-02-14T20:19:20.646Z,80.06
2024-02-14T20:21:53.177Z,80.07
2024-02-14T20:24:26.361Z,80.05
2024-02-14T20:26:58.825Z,80.06
2024-02-14T20:29:31.251Z,80.02
2024-02-14T20:32:04.024Z,80.11
2024-02-14T20:34:36.551Z,80.16
2024-02-14T20:37:09.787Z,80.09
2024-02-14T20:39:42.124Z,79.99
2024-02-14T20:42:16.128Z,80.03
2024-02-14T20:44:48.834Z,80.05
2024-02-14T20:47:21.179Z,79.93
2024-02-14T20:49:53.847Z,79.77
2024-02-14T20:52:26.440Z,79.89
2024-02-14T20:54:59.718Z,80.01
2024-02-14T20:57:32.070Z,79.87
2024-02-14T21:00:10.080Z,80.17
2024-02-14T21:02:41.120Z,80.10
2024-02-14T21:05:15.062Z,80.19
2024-02-14T21:07:47.609Z,80.37
2024-02-14T21:10:21.147Z,80.44
2024-02-14T21:12:53.907Z,80.30
2024-02-14T21:15:26.809Z,80.22
2024-02-14T21:17:59.513Z,80.50
2024-02-14T21:20:32.300Z,80.55
2024-02-14T21:23:04.781Z,80.69
2024-02-14T21:25:37.789Z,80.67
2024-02-14T21:28:10.899Z,80.54
2024-02-14T21:30:43.181Z,80.43
2024-02-14T21:33:15.669Z,80.74
2024-02-14T21:35:50.684Z,80.73
2024-02-14T21:38:23.195Z,80.54
2024-02-14T21:40:55.502Z,80.83
2024-02-14T21:43:27.928Z,80.72
2024-02-14T21:46:00.254Z,80.51
2024-02-14T21:48:32.943Z,80.53
2024-02-14T21:51:10.691Z,80.48
2024-02-14T21:53:43.292Z,80.54
2024-02-14T21:56:16.817Z,80.51
2024-02-14T21:58:49.330Z,80.52
2024-02-14T22:01:21.857Z,80.68
2024-02-14T22:03:54.437Z,80.48
2024-02-14T22:06:27.059Z,80.58
2024-02-14T22:08:59.724Z,80.54
2024-02-14T22:11:32.400Z,80.63
2024-02-14T22:14:05.291Z,80.60
2024-02-14T22:16:38.685Z,80.90
2024-02-14T22:19:14.052Z,80.63
2024-02-14T22:21:47.024Z,80.91
2024-02-14T22:24:19.526Z,80.85
2024-02-14T22:26:52.143Z,81.02
2024-02-14T22:29:24.656Z,80.91
2024-02-14T22:31:57.085Z,80.80
2024-02-14T22:34:29.565Z,80.81
2024-02-14T22:37:05.140Z,81.11
2024-02-14T22:39:37.612Z,80.99
2024-02-14T22:42:10.510Z,80.90
2024-02-14T22:44:43.087Z,80.90
2024-02-14T22:47:15.756Z,81.02
2024-02-14T22:49:48.394Z,80.93
2024-02-14T22:52:23.224Z,81.04
2024-02-14T22:54:55.577Z,81.11
2024-02-14T22:57:28.269Z,81.13
2024-02-14T23:00:00.902Z,81.03
2024-02-14T23:02:34.158Z,81.21
2024-02-14T23:05:08.422Z,81.20
2024-02-14T23:07:41.072Z,81.10
2024-02-14T23:10:13.888Z,81.28
2024-02-14T23:12:46.642Z,81.17
2024-02-14T23:15:19.714Z,81.37
2024-02-14T23:17:52.251Z,81.12
2024-02-14T23:20:24.669Z,81.22
2024-02-14T23:22:57.588Z,81.24
2024-02-14T23:25:33.638Z,81.28
2024-02-14T23:28:06.227Z,81.06
2024-02-14T23:30:41.041Z,81.18
2024-02-14T23:33:14.411Z,81.20
2024-02-14T23:35:47.194Z,81.05
2024-02-14T23:38:20.672Z,81.01
2024-02-14T23:40:53.236Z,80.97
2024-02-14T23:43:25.709Z,80.99
2024-02-14T23:45:58.063Z,81.06
2024-02-14T23:48:30.528Z,80.87
2024-02-14T23:51:03.714Z,80.93
2024-02-14T23:53:36.095Z,80.85
2024-02-14T23:56:09.323Z,80.84
2024-02-14T23:58:41.692Z,80.77
